Time;durP1;ratioP1;P1;durP2;ratioP2;P2;SDS_P1;SDS_P2;PMS_P1;PMS_P2;Temp;Humidity;BMP_temperature;BMP_pressure;BME280_temperature;BME280_humidity;BME280_pressure;Samples;Min_cycle;Max_cycle;Signal;HPM_P1;HPM_P2
2022/09/13 00:01:28;;;;;;;0.70;0.63;;;18.70;94.50;;;;;;5096037;28;20020;-71
2022/09/13 00:03:54;;;;;;;1.67;0.82;;;18.80;94.70;;;;;;5104904;28;20174;-71
2022/09/13 00:06:20;;;;;;;1.30;0.60;;;18.80;94.60;;;;;;5111503;28;20020;-71
2022/09/13 00:08:47;;;;;;;1.02;0.68;;;18.70;94.70;;;;;;5102135;28;20051;-71
2022/09/13 00:11:19;;;;;;;1.23;1.00;;;18.70;94.60;;;;;;5095186;28;20046;-71
2022/09/13 00:13:45;;;;;;;1.07;0.90;;;18.60;94.80;;;;;;5102252;28;20016;-71
2022/09/13 00:16:16;;;;;;;1.88;0.80;;;18.60;94.90;;;;;;5094877;28;20065;-71
2022/09/13 00:18:41;;;;;;;1.52;0.93;;;18.50;94.90;;;;;;5102685;28;20493;-71
2022/09/13 00:21:10;;;;;;;1.70;0.70;;;18.50;95.00;;;;;;5094442;28;20035;-71
2022/09/13 00:23:36;;;;;;;2.38;1.00;;;18.40;95.20;;;;;;5103439;28;20050;-71
2022/09/13 00:26:11;;;;;;;1.30;0.90;;;18.30;95.30;;;;;;5093534;28;20056;-71
2022/09/13 00:28:37;;;;;;;3.05;1.10;;;18.20;95.30;;;;;;5102172;28;20094;-71
2022/09/13 00:31:05;;;;;;;1.27;0.75;;;18.20;95.30;;;;;;5100461;28;20028;-71
2022/09/13 00:33:31;;;;;;;0.90;0.90;;;18.20;95.20;;;;;;5100612;28;20027;-71
2022/09/13 00:35:57;;;;;;;0.98;0.57;;;18.20;95.40;;;;;;5112313;28;20591;-71
2022/09/13 00:38:23;;;;;;;1.33;0.77;;;18.20;95.20;;;;;;5102758;28;20115;-71
2022/09/13 00:40:48;;;;;;;2.97;0.77;;;18.20;95.50;;;;;;5090292;28;20016;-71
2022/09/13 00:43:20;;;;;;;2.70;0.70;;;18.20;96.10;;;;;;5104160;28;20482;-71
2022/09/13 00:45:47;;;;;;;2.67;0.68;;;18.20;95.90;;;;;;5111859;28;20032;-71
2022/09/13 00:48:24;;;;;;;3.95;0.65;;;18.20;95.90;;;;;;5102562;28;20096;-71
2022/09/13 00:50:53;;;;;;;2.83;0.80;;;18.20;96.20;;;;;;5092766;28;20024;-71
2022/09/13 00:53:24;;;;;;;1.00;0.75;;;18.10;96.40;;;;;;5102684;28;20157;-71
2022/09/13 00:55:55;;;;;;;0.95;0.60;;;18.10;97.00;;;;;;5092506;28;20305;-71
2022/09/13 00:58:40;;;;;;;0.90;0.63;;;18.10;96.80;;;;;;5102626;28;20028;-71
2022/09/13 01:01:09;;;;;;;2.38;0.60;;;18.10;96.80;;;;;;5093267;28;20271;-71
2022/09/13 01:03:36;;;;;;;3.90;0.75;;;18.10;96.50;;;;;;5102787;28;20449;-71
2022/09/13 01:06:28;;;;;;;1.25;0.75;;;18.10;96.30;;;;;;5093063;28;20111;-71
2022/09/13 01:09:02;;;;;;;1.42;0.50;;;18.10;96.30;;;;;;5098089;28;20012;-71
2022/09/13 01:11:49;;;;;;;0.77;0.60;;;18.10;96.20;;;;;;5092648;28;20478;-72
2022/09/13 01:14:19;;;;;;;1.65;0.50;;;18.00;96.20;;;;;;5100908;28;20102;-71
2022/09/13 01:16:45;;;;;;;0.75;0.50;;;18.10;95.90;;;;;;5094715;28;20128;-72
2022/09/13 01:19:11;;;;;;;0.68;0.63;;;18.10;96.00;;;;;;5100975;28;20043;-71
2022/09/13 01:21:52;;;;;;;2.25;0.77;;;18.10;96.10;;;;;;5094852;28;20481;-71
2022/09/13 01:24:46;;;;;;;1.85;0.70;;;18.10;96.20;;;;;;5095133;28;20035;-71
2022/09/13 01:27:18;;;;;;;0.60;0.60;;;18.10;96.10;;;;;;5106440;28;20031;-71
2022/09/13 01:30:23;;;;;;;0.90;0.90;;;18.10;96.30;;;;;;5097171;28;20028;-71
2022/09/13 01:33:06;;;;;;;3.15;1.25;;;18.10;96.30;;;;;;5048830;28;20455;-71
2022/09/13 01:35:38;;;;;;;1.98;0.93;;;18.10;96.40;;;;;;5029624;28;20037;-72
2022/09/13 01:38:15;;;;;;;1.00;0.90;;;18.00;96.40;;;;;;5080245;28;20035;-71
2022/09/13 01:40:50;;;;;;;3.42;0.70;;;18.00;96.10;;;;;;5091950;28;20077;-71
2022/09/13 01:43:25;;;;;;;2.78;0.80;;;18.00;96.30;;;;;;5103558;28;20484;-72
2022/09/13 01:46:12;;;;;;;0.73;0.60;;;18.00;96.40;;;;;;5091890;28;20022;-71
2022/09/13 01:49:16;;;;;;;4.88;0.70;;;18.00;96.40;;;;;;5094831;28;20050;-71
2022/09/13 01:51:56;;;;;;;1.55;0.80;;;18.00;96.40;;;;;;5063058;28;20055;-72
2022/09/13 01:54:59;;;;;;;3.65;0.85;;;18.10;96.40;;;;;;5095587;28;20026;-71
2022/09/13 01:57:50;;;;;;;1.13;1.00;;;18.00;96.30;;;;;;5104335;28;20031;-71
2022/09/13 02:00:17;;;;;;;1.08;0.98;;;18.00;96.10;;;;;;5092000;28;20081;-72
2022/09/13 02:02:56;;;;;;;0.85;0.70;;;18.00;96.40;;;;;;5100118;28;20024;-72
2022/09/13 02:05:53;;;;;;;0.68;0.50;;;18.00;96.30;;;;;;5069865;28;20455;-72
2022/09/13 02:08:31;;;;;;;0.80;0.80;;;18.00;96.40;;;;;;5077675;28;20483;-71
2022/09/13 02:11:02;;;;;;;1.00;0.70;;;18.00;96.10;;;;;;5091886;28;20035;-71
2022/09/13 02:13:35;;;;;;;2.38;0.70;;;18.00;96.40;;;;;;5101223;28;20454;-71
2022/09/13 02:16:22;;;;;;;2.42;0.85;;;18.00;96.30;;;;;;5091831;28;20020;-71
2022/09/13 02:18:52;;;;;;;3.13;1.00;;;18.00;96.50;;;;;;5078789;28;20031;-71
2022/09/13 02:21:29;;;;;;;0.88;0.80;;;18.00;96.50;;;;;;5077991;28;20020;-70
2022/09/13 02:24:18;;;;;;;1.10;1.00;;;18.00;96.40;;;;;;5096987;28;20351;-71
2022/09/13 02:26:46;;;;;;;1.25;0.90;;;18.00;96.50;;;;;;5092487;28;20020;-71
2022/09/13 02:29:17;;;;;;;2.60;0.90;;;17.90;96.50;;;;;;5100062;28;20036;-71
2022/09/13 02:32:00;;;;;;;2.08;1.10;;;17.90;96.60;;;;;;5097451;28;20039;-71
2022/09/13 02:34:46;;;;;;;;;;;17.90;96.50;;;;;;5100868;28;20111;-71
2022/09/13 02:37:12;;;;;;;4.25;0.98;;;18.00;96.60;;;;;;5109534;28;19957;-71
2022/09/13 02:40:01;;;;;;;1.02;0.80;;;17.90;96.60;;;;;;5101446;28;20056;-71
2022/09/13 02:42:42;;;;;;;1.08;0.70;;;17.90;96.50;;;;;;5103020;28;20106;-71
2022/09/13 02:45:10;;;;;;;2.50;0.65;;;17.90;96.60;;;;;;5096609;28;20028;-72
2022/09/13 02:47:39;;;;;;;0.80;0.80;;;17.90;96.70;;;;;;5103816;28;20038;-71
2022/09/13 02:50:23;;;;;;;0.65;0.65;;;17.80;96.90;;;;;;5095886;28;20028;-71
2022/09/13 02:52:57;;;;;;;0.90;0.90;;;17.80;96.90;;;;;;5093438;28;20386;-71
2022/09/13 02:55:31;;;;;;;0.80;0.80;;;17.80;97.00;;;;;;5073275;28;20162;-70
2022/09/13 02:58:24;;;;;;;1.65;1.05;;;17.80;97.00;;;;;;5103985;28;20027;-71
2022/09/13 03:00:49;;;;;;;3.13;1.08;;;17.80;97.00;;;;;;5095167;28;20387;-71
2022/09/13 03:03:15;;;;;;;1.75;0.90;;;17.80;97.10;;;;;;5106093;28;20028;-71
2022/09/13 03:05:42;;;;;;;1.15;0.98;;;17.80;97.20;;;;;;5093540;28;20024;-71
2022/09/13 03:08:10;;;;;;;1.85;1.08;;;17.80;97.20;;;;;;5096913;28;20020;-71
2022/09/13 03:11:19;;;;;;;3.13;1.15;;;17.80;97.40;;;;;;5094839;28;20028;-71
2022/09/13 03:13:53;;;;;;;1.73;0.93;;;17.70;97.20;;;;;;5087817;28;20043;-71
2022/09/13 03:16:31;;;;;;;1.00;0.80;;;17.70;97.50;;;;;;5097014;28;20390;-70
2022/09/13 03:19:16;;;;;;;7.28;1.25;;;17.70;97.10;;;;;;5100857;28;20031;-71
2022/09/13 03:21:44;;;;;;;1.33;1.00;;;17.70;97.30;;;;;;5093461;28;20034;-71
2022/09/13 03:24:36;;;;;;;4.97;0.93;;;17.70;97.40;;;;;;5103636;28;20054;-71
2022/09/13 03:27:08;;;;;;;6.22;1.20;;;17.70;97.50;;;;;;5108451;28;20027;-71
2022/09/13 03:29:45;;;;;;;4.30;1.10;;;17.60;97.50;;;;;;5100898;28;20020;-71
2022/09/13 03:32:29;;;;;;;1.75;1.08;;;17.60;97.50;;;;;;5090769;28;20483;-71
2022/09/13 03:35:01;;;;;;;3.50;0.90;;;17.60;97.50;;;;;;5097856;28;20051;-71
2022/09/13 03:37:55;;;;;;;3.80;0.95;;;17.60;97.60;;;;;;5101771;28;20027;-71
2022/09/13 03:40:32;;;;;;;0.98;0.88;;;17.70;97.70;;;;;;5094310;28;20051;-71
2022/09/13 03:43:36;;;;;;;3.10;1.10;;;17.60;97.60;;;;;;5105748;28;20055;-71
2022/09/13 03:46:17;;;;;;;0.93;0.93;;;17.70;97.70;;;;;;5094503;28;20126;-70
2022/09/13 03:48:44;;;;;;;1.57;1.00;;;17.60;97.80;;;;;;5098133;28;20055;-71
2022/09/13 03:51:10;;;;;;;1.30;0.75;;;17.70;97.90;;;;;;5095319;28;20040;-71
2022/09/13 03:53:44;;;;;;;1.88;0.90;;;17.70;98.00;;;;;;5103866;28;20016;-71
2022/09/13 03:56:19;;;;;;;2.35;0.90;;;17.70;98.20;;;;;;5095103;28;20023;-71
2022/09/13 03:58:45;;;;;;;1.23;0.90;;;17.70;98.20;;;;;;5100340;28;20444;-71
2022/09/13 04:01:11;;;;;;;1.92;1.27;;;17.60;98.30;;;;;;5102456;28;20024;-70
2022/09/13 04:03:37;;;;;;;6.90;0.98;;;17.60;98.40;;;;;;5103595;28;20024;-71
2022/09/13 04:06:03;;;;;;;1.15;0.80;;;17.60;98.50;;;;;;5094242;28;20476;-71
2022/09/13 04:08:30;;;;;;;1.30;0.80;;;17.60;98.60;;;;;;5100258;28;20106;-71
2022/09/13 04:10:55;;;;;;;1.85;0.93;;;17.60;98.80;;;;;;5113212;28;20032;-71
2022/09/13 04:13:21;;;;;;;2.30;1.00;;;17.60;99.00;;;;;;5103713;28;20043;-71
2022/09/13 04:15:49;;;;;;;2.10;1.00;;;17.60;99.00;;;;;;5093321;28;20077;-71
2022/09/13 04:18:14;;;;;;;0.90;0.90;;;17.60;99.10;;;;;;5101792;28;20428;-71
2022/09/13 04:20:40;;;;;;;1.25;0.98;;;17.60;99.30;;;;;;5113815;28;20020;-71
2022/09/13 04:23:06;;;;;;;3.42;0.80;;;17.60;99.30;;;;;;5105722;28;20489;-71
2022/09/13 04:25:31;;;;;;;2.08;0.88;;;17.60;99.30;;;;;;5093159;28;20182;-71
2022/09/13 04:27:58;;;;;;;1.80;0.80;;;17.60;99.40;;;;;;5104922;28;20032;-71
2022/09/13 04:30:25;;;;;;;6.75;1.00;;;17.60;99.50;;;;;;5093101;28;20024;-71
2022/09/13 04:32:50;;;;;;;2.13;0.85;;;17.60;99.40;;;;;;5103997;28;20482;-71
2022/09/13 04:35:18;;;;;;;1.35;0.85;;;17.60;99.50;;;;;;5093732;28;20111;-71
2022/09/13 04:37:44;;;;;;;0.95;0.85;;;17.60;99.50;;;;;;5102838;28;20024;-71
2022/09/13 04:40:10;;;;;;;1.38;0.70;;;17.60;99.60;;;;;;5094411;28;20035;-71
2022/09/13 04:42:36;;;;;;;1.77;1.13;;;17.60;99.60;;;;;;5100441;28;20118;-71
2022/09/13 04:45:02;;;;;;;1.60;1.10;;;17.60;99.80;;;;;;5095478;28;20114;-71
2022/09/13 04:47:28;;;;;;;1.45;1.10;;;17.60;99.80;;;;;;5100228;28;20122;-72
2022/09/13 04:49:53;;;;;;;2.33;0.98;;;17.60;99.90;;;;;;5096648;28;20028;-71
2022/09/13 04:52:19;;;;;;;1.80;1.13;;;17.60;99.80;;;;;;5098941;28;20027;-71
2022/09/13 04:54:46;;;;;;;1.77;0.77;;;17.60;99.90;;;;;;5097174;28;20108;-71
2022/09/13 04:57:13;;;;;;;1.02;0.90;;;17.60;99.90;;;;;;5096834;28;20034;-72
2022/09/13 04:59:39;;;;;;;0.88;0.80;;;17.60;99.80;;;;;;5097292;28;20478;-72
2022/09/13 05:02:05;;;;;;;1.60;1.00;;;17.60;99.70;;;;;;5096833;28;20035;-71
2022/09/13 05:04:30;;;;;;;1.63;1.15;;;17.60;99.80;;;;;;5099551;28;20020;-73
2022/09/13 05:06:57;;;;;;;1.27;0.88;;;17.60;99.90;;;;;;5095756;28;20032;-72
2022/09/13 05:09:23;;;;;;;1.73;1.20;;;17.60;99.90;;;;;;5100326;28;20020;-72
2022/09/13 05:11:49;;;;;;;0.70;0.70;;;17.70;99.90;;;;;;5096419;28;20028;-71
2022/09/13 05:14:15;;;;;;;4.28;0.65;;;17.70;99.80;;;;;;5103561;28;20553;-72
2022/09/13 05:16:41;;;;;;;3.92;0.90;;;17.80;99.80;;;;;;5107787;27;20115;-72
2022/09/13 05:19:08;;;;;;;2.60;0.80;;;17.90;99.80;;;;;;5101088;28;20111;-72
2022/09/13 05:21:34;;;;;;;1.45;0.90;;;17.90;99.80;;;;;;5094850;28;20031;-71
2022/09/13 05:24:00;;;;;;;1.23;0.88;;;17.90;99.70;;;;;;5100934;28;20031;-72
2022/09/13 05:26:30;;;;;;;2.03;1.02;;;17.90;99.70;;;;;;5094587;28;20038;-71
2022/09/13 05:28:57;;;;;;;2.65;1.40;;;18.00;99.80;;;;;;5099637;28;20058;-72
2022/09/13 05:31:29;;;;;;;1.48;1.10;;;17.90;99.70;;;;;;5094594;28;20028;-71
2022/09/13 05:34:00;;;;;;;2.30;1.00;;;18.00;99.80;;;;;;5099720;28;20422;-72
2022/09/13 05:36:26;;;;;;;1.60;1.20;;;18.00;99.80;;;;;;5094764;28;20470;-72
2022/09/13 05:38:53;;;;;;;1.60;1.02;;;18.00;99.80;;;;;;5100702;28;20462;-72
2022/09/13 05:41:19;;;;;;;1.23;0.80;;;18.10;99.70;;;;;;5094343;28;20024;-72
2022/09/13 05:43:45;;;;;;;1.67;1.08;;;18.10;99.50;;;;;;5096287;28;20493;-71
2022/09/13 05:46:16;;;;;;;1.52;1.10;;;18.10;99.50;;;;;;5093256;28;20036;-71
2022/09/13 05:48:42;;;;;;;3.15;1.10;;;18.20;99.50;;;;;;5100766;28;20145;-71
2022/09/13 05:51:07;;;;;;;2.90;1.10;;;18.20;99.40;;;;;;5090725;28;20532;-72
2022/09/13 05:53:34;;;;;;;2.95;1.15;;;18.20;99.40;;;;;;5101066;28;20069;-71
2022/09/13 05:56:00;;;;;;;1.88;0.93;;;18.30;99.50;;;;;;5090851;28;20040;-72
2022/09/13 05:58:26;;;;;;;3.55;1.10;;;18.30;99.40;;;;;;5101245;28;20028;-72
2022/09/13 06:00:54;;;;;;;1.27;0.85;;;18.40;99.40;;;;;;5089689;28;20066;-72
2022/09/13 06:03:20;;;;;;;1.95;0.80;;;18.50;99.40;;;;;;5099120;28;20539;-72
2022/09/13 06:05:45;;;;;;;3.17;1.20;;;18.60;99.30;;;;;;5111315;28;20024;-72
2022/09/13 06:08:11;;;;;;;2.83;1.10;;;18.60;99.30;;;;;;5103431;28;20031;-72
2022/09/13 06:10:37;;;;;;;1.05;0.80;;;18.70;99.20;;;;;;5091370;28;20082;-72
2022/09/13 06:13:03;;;;;;;5.63;1.65;;;18.80;99.10;;;;;;5102944;28;20042;-72
2022/09/13 06:15:28;;;;;;;4.47;0.80;;;18.90;99.10;;;;;;5091446;28;20016;-72
2022/09/13 06:17:54;;;;;;;2.17;1.00;;;18.90;99.00;;;;;;5102855;28;20035;-72
2022/09/13 06:20:19;;;;;;;159.10;13.32;;;19.10;99.00;;;;;;5091410;28;20421;-72
2022/09/13 06:22:47;;;;;;;0.90;0.70;;;19.20;99.00;;;;;;5091801;28;20028;-71
2022/09/13 06:25:12;;;;;;;6.35;1.00;;;19.40;98.90;;;;;;5090103;28;20077;-71
2022/09/13 06:27:38;;;;;;;1.92;0.98;;;19.50;98.70;;;;;;5094011;28;20024;-73
2022/09/13 06:30:07;;;;;;;3.50;1.23;;;19.70;98.50;;;;;;5088211;28;20036;-72
2022/09/13 06:32:33;;;;;;;4.95;1.40;;;19.90;98.40;;;;;;5094626;28;20108;-72
2022/09/13 06:34:59;;;;;;;35.30;3.17;;;20.10;98.30;;;;;;5089841;28;20020;-72
2022/09/13 06:37:24;;;;;;;8.23;2.00;;;20.40;98.00;;;;;;5094322;28;20489;-72
2022/09/13 06:39:50;;;;;;;4.85;1.52;;;20.70;97.60;;;;;;5090009;28;20012;-72
2022/09/13 06:42:16;;;;;;;6.22;1.73;;;20.90;97.30;;;;;;5094485;28;20115;-72
2022/09/13 06:44:42;;;;;;;8.88;1.20;;;21.10;96.80;;;;;;5089747;28;20020;-72
2022/09/13 06:47:08;;;;;;;4.68;1.40;;;21.30;96.80;;;;;;5093672;28;20081;-72
2022/09/13 06:49:34;;;;;;;3.03;0.90;;;21.40;96.80;;;;;;5088688;28;20536;-71
2022/09/13 06:51:59;;;;;;;6.05;0.93;;;21.50;96.50;;;;;;5092829;28;20036;-71
2022/09/13 06:54:25;;;;;;;9.73;1.58;;;21.70;96.00;;;;;;5095072;28;20016;-71
2022/09/13 06:56:51;;;;;;;11.80;1.85;;;21.80;96.00;;;;;;5094462;28;20019;-71
2022/09/13 06:59:17;;;;;;;20.35;1.40;;;21.90;95.90;;;;;;5091074;28;20382;-71
2022/09/13 07:01:43;;;;;;;7.15;1.40;;;22.00;96.10;;;;;;5093117;28;20036;-72
2022/09/13 07:04:18;;;;;;;7.13;1.08;;;22.10;96.00;;;;;;5090520;28;20020;-72
2022/09/13 07:06:46;;;;;;;5.60;1.10;;;22.20;95.70;;;;;;5093045;28;20042;-72
2022/09/13 07:09:16;;;;;;;2.40;0.95;;;22.40;95.60;;;;;;5090761;28;20009;-72
2022/09/13 07:11:44;;;;;;;3.03;0.82;;;22.50;95.30;;;;;;5092292;28;20032;-72
2022/09/13 07:14:14;;;;;;;6.57;1.17;;;22.60;95.20;;;;;;5091013;28;20020;-72
2022/09/13 07:16:40;;;;;;;3.92;1.20;;;22.70;94.90;;;;;;5094396;28;20024;-72
2022/09/13 07:19:10;;;;;;;9.93;1.30;;;22.80;94.70;;;;;;5103782;28;20027;-72
2022/09/13 07:21:36;;;;;;;4.22;1.00;;;22.90;95.00;;;;;;5096520;28;20023;-72
2022/09/13 07:24:03;;;;;;;3.53;0.57;;;22.90;94.60;;;;;;5093952;28;20367;-72
2022/09/13 07:26:29;;;;;;;5.38;0.93;;;23.00;94.50;;;;;;5097162;28;20028;-72
2022/09/13 07:28:57;;;;;;;10.95;1.20;;;23.00;94.50;;;;;;5096296;28;20494;-73
2022/09/13 07:31:34;;;;;;;3.20;0.77;;;23.10;95.20;;;;;;5097567;28;20031;-72
2022/09/13 07:34:03;;;;;;;4.03;0.80;;;23.10;94.80;;;;;;5093978;28;20419;-72
2022/09/13 07:36:47;;;;;;;2.42;0.85;;;23.30;94.70;;;;;;5097049;28;20011;-72
2022/09/13 07:39:15;;;;;;;1.05;0.85;;;23.40;94.70;;;;;;5094370;28;20058;-72
2022/09/13 07:41:40;;;;;;;3.90;0.65;;;23.50;94.60;;;;;;5096893;28;20035;-72
2022/09/13 07:44:07;;;;;;;1.80;0.75;;;23.60;94.40;;;;;;5094869;28;20047;-71
2022/09/13 07:46:43;;;;;;;1.15;0.70;;;23.80;94.20;;;;;;5097064;28;20016;-72
2022/09/13 07:49:10;;;;;;;2.53;0.70;;;23.90;94.30;;;;;;5098759;28;20044;-72
2022/09/13 07:51:38;;;;;;;3.53;0.70;;;24.00;94.00;;;;;;5093885;28;20031;-74
2022/09/13 07:54:12;;;;;;;2.78;1.10;;;24.10;94.00;;;;;;5094121;28;20016;-74
2022/09/13 07:56:40;;;;;;;3.15;1.42;;;24.10;93.90;;;;;;5092001;28;20035;-76
2022/09/13 07:59:10;;;;;;;4.55;1.17;;;24.30;94.10;;;;;;5093855;28;20020;-72
2022/09/13 08:01:38;;;;;;;2.97;1.00;;;24.30;94.00;;;;;;5093014;28;20047;-71
2022/09/13 08:04:07;;;;;;;3.10;0.90;;;24.40;94.00;;;;;;5094131;28;20028;-72
2022/09/13 08:06:34;;;;;;;2.30;0.95;;;24.30;93.90;;;;;;5091611;28;20065;-72
2022/09/13 08:09:02;;;;;;;9.38;1.35;;;24.20;94.50;;;;;;5093443;28;20058;-73
2022/09/13 08:11:31;;;;;;;1.23;0.90;;;24.00;95.00;;;;;;5096095;28;20024;-72
2022/09/13 08:13:58;;;;;;;4.57;1.00;;;24.00;94.80;;;;;;5096844;28;20032;-72
2022/09/13 08:16:25;;;;;;;2.47;1.13;;;23.80;94.80;;;;;;5094702;28;20054;-72
2022/09/13 08:18:54;;;;;;;1.70;0.90;;;23.70;95.00;;;;;;5094824;28;20034;-71
2022/09/13 08:21:20;;;;;;;2.75;0.85;;;23.70;95.40;;;;;;5093753;28;20016;-71
2022/09/13 08:23:46;;;;;;;6.65;1.17;;;23.50;95.30;;;;;;5093892;28;20024;-72
2022/09/13 08:26:13;;;;;;;1.92;0.90;;;23.50;95.40;;;;;;5094169;28;20103;-72
2022/09/13 08:28:40;;;;;;;3.35;0.90;;;23.50;95.60;;;;;;5095478;28;20441;-72
2022/09/13 08:31:16;;;;;;;1.35;0.85;;;23.50;95.70;;;;;;5093297;28;20077;-72
